sensor_id;sensor_type;location;lat;lon;timestamp;temperature;humidity
12622;DHT22;6376;48.182;-1.644;2023-12-20T00:00:36;12.90;92.30
12622;DHT22;6376;48.182;-1.644;2023-12-20T00:03:03;12.90;92.30
12622;DHT22;6376;48.182;-1.644;2023-12-20T00:05:28;12.90;92.30
12622;DHT22;6376;48.182;-1.644;2023-12-20T00:07:54;12.90;92.30
12622;DHT22;6376;48.182;-1.644;2023-12-20T00:10:19;12.90;92.30
12622;DHT22;6376;48.182;-1.644;2023-12-20T00:12:45;12.90;92.20
12622;DHT22;6376;48.182;-1.644;2023-12-20T00:15:11;12.80;92.20
12622;DHT22;6376;48.182;-1.644;2023-12-20T00:17:36;12.80;92.10
12622;DHT22;6376;48.182;-1.644;2023-12-20T00:20:02;12.80;92.20
12622;DHT22;6376;48.182;-1.644;2023-12-20T00:22:28;12.80;92.10
12622;DHT22;6376;48.182;-1.644;2023-12-20T00:24:53;12.80;92.10
12622;DHT22;6376;48.182;-1.644;2023-12-20T00:27:19;12.80;92.20
12622;DHT22;6376;48.182;-1.644;2023-12-20T00:29:44;12.80;92.20
12622;DHT22;6376;48.182;-1.644;2023-12-20T00:32:13;12.80;92.10
12622;DHT22;6376;48.182;-1.644;2023-12-20T00:34:39;12.80;92.10
12622;DHT22;6376;48.182;-1.644;2023-12-20T00:37:04;12.70;92.10
12622;DHT22;6376;48.182;-1.644;2023-12-20T00:39:31;12.70;92.00
12622;DHT22;6376;48.182;-1.644;2023-12-20T00:41:58;12.70;92.10
12622;DHT22;6376;48.182;-1.644;2023-12-20T00:44:23;12.70;92.00
12622;DHT22;6376;48.182;-1.644;2023-12-20T00:46:49;12.70;92.00
12622;DHT22;6376;48.182;-1.644;2023-12-20T00:49:15;12.70;92.00
12622;DHT22;6376;48.182;-1.644;2023-12-20T00:51:40;12.70;91.90
12622;DHT22;6376;48.182;-1.644;2023-12-20T00:54:06;12.60;92.00
12622;DHT22;6376;48.182;-1.644;2023-12-20T00:56:32;12.60;91.90
12622;DHT22;6376;48.182;-1.644;2023-12-20T00:58:57;12.60;91.90
12622;DHT22;6376;48.182;-1.644;2023-12-20T01:01:23;12.60;91.90
12622;DHT22;6376;48.182;-1.644;2023-12-20T01:03:48;12.60;91.90
12622;DHT22;6376;48.182;-1.644;2023-12-20T01:06:16;12.60;92.00
12622;DHT22;6376;48.182;-1.644;2023-12-20T01:08:42;12.60;91.90
12622;DHT22;6376;48.182;-1.644;2023-12-20T01:11:08;12.60;91.80
12622;DHT22;6376;48.182;-1.644;2023-12-20T01:13:33;12.50;91.80
12622;DHT22;6376;48.182;-1.644;2023-12-20T01:15:59;12.50;91.80
12622;DHT22;6376;48.182;-1.644;2023-12-20T01:18:25;12.50;91.90
12622;DHT22;6376;48.182;-1.644;2023-12-20T01:20:50;12.50;91.80
12622;DHT22;6376;48.182;-1.644;2023-12-20T01:23:16;12.50;91.80
12622;DHT22;6376;48.182;-1.644;2023-12-20T01:25:42;12.50;91.80
12622;DHT22;6376;48.182;-1.644;2023-12-20T01:28:08;12.50;91.90
12622;DHT22;6376;48.182;-1.644;2023-12-20T01:30:34;12.50;91.80
12622;DHT22;6376;48.182;-1.644;2023-12-20T01:33:00;12.50;91.80
12622;DHT22;6376;48.182;-1.644;2023-12-20T01:35:26;12.40;92.10
12622;DHT22;6376;48.182;-1.644;2023-12-20T01:37:52;12.40;91.80
12622;DHT22;6376;48.182;-1.644;2023-12-20T01:40:22;12.40;91.80
12622;DHT22;6376;48.182;-1.644;2023-12-20T01:42:47;12.40;92.00
12622;DHT22;6376;48.182;-1.644;2023-12-20T01:45:22;12.40;92.00
12622;DHT22;6376;48.182;-1.644;2023-12-20T01:47:48;12.40;91.90
12622;DHT22;6376;48.182;-1.644;2023-12-20T01:50:14;12.40;92.00
12622;DHT22;6376;48.182;-1.644;2023-12-20T01:52:41;12.40;92.00
12622;DHT22;6376;48.182;-1.644;2023-12-20T01:55:06;12.40;91.90
12622;DHT22;6376;48.182;-1.644;2023-12-20T01:57:41;12.40;91.90
12622;DHT22;6376;48.182;-1.644;2023-12-20T02:00:07;12.40;91.90
12622;DHT22;6376;48.182;-1.644;2023-12-20T02:02:37;12.40;91.90
12622;DHT22;6376;48.182;-1.644;2023-12-20T02:05:05;12.40;91.90
12622;DHT22;6376;48.182;-1.644;2023-12-20T02:07:31;12.40;91.90
12622;DHT22;6376;48.182;-1.644;2023-12-20T02:09:57;12.40;91.90
12622;DHT22;6376;48.182;-1.644;2023-12-20T02:12:22;12.40;91.90
12622;DHT22;6376;48.182;-1.644;2023-12-20T02:14:48;12.40;91.90
12622;DHT22;6376;48.182;-1.644;2023-12-20T02:17:15;12.40;91.90
12622;DHT22;6376;48.182;-1.644;2023-12-20T02:19:41;12.40;91.80
12622;DHT22;6376;48.182;-1.644;2023-12-20T02:22:10;12.30;91.80
12622;DHT22;6376;48.182;-1.644;2023-12-20T02:24:36;12.30;91.80
12622;DHT22;6376;48.182;-1.644;2023-12-20T02:27:02;12.30;91.80
12622;DHT22;6376;48.182;-1.644;2023-12-20T02:29:28;12.30;91.70
12622;DHT22;6376;48.182;-1.644;2023-12-20T02:31:54;12.30;91.70
12622;DHT22;6376;48.182;-1.644;2023-12-20T02:34:19;12.30;91.70
12622;DHT22;6376;48.182;-1.644;2023-12-20T02:36:45;12.30;91.80
12622;DHT22;6376;48.182;-1.644;2023-12-20T02:39:11;12.30;91.70
12622;DHT22;6376;48.182;-1.644;2023-12-20T02:41:36;12.30;91.70
12622;DHT22;6376;48.182;-1.644;2023-12-20T02:44:03;12.30;91.70
12622;DHT22;6376;48.182;-1.644;2023-12-20T02:46:28;12.30;91.70
12622;DHT22;6376;48.182;-1.644;2023-12-20T02:48:54;12.30;91.70
12622;DHT22;6376;48.182;-1.644;2023-12-20T02:51:20;12.30;91.60
12622;DHT22;6376;48.182;-1.644;2023-12-20T02:53:46;12.20;91.60
12622;DHT22;6376;48.182;-1.644;2023-12-20T02:56:11;12.20;91.70
12622;DHT22;6376;48.182;-1.644;2023-12-20T02:58:37;12.20;91.70
12622;DHT22;6376;48.182;-1.644;2023-12-20T03:01:03;12.20;91.70
12622;DHT22;6376;48.182;-1.644;2023-12-20T03:03:28;12.20;91.70
12622;DHT22;6376;48.182;-1.644;2023-12-20T03:05:54;12.20;91.60
12622;DHT22;6376;48.182;-1.644;2023-12-20T03:08:19;12.20;91.70
12622;DHT22;6376;48.182;-1.644;2023-12-20T03:10:45;12.20;91.70
12622;DHT22;6376;48.182;-1.644;2023-12-20T03:13:11;12.20;91.70
12622;DHT22;6376;48.182;-1.644;2023-12-20T03:15:36;12.20;91.70
12622;DHT22;6376;48.182;-1.644;2023-12-20T03:18:03;12.20;91.70
12622;DHT22;6376;48.182;-1.644;2023-12-20T03:20:28;12.20;91.60
12622;DHT22;6376;48.182;-1.644;2023-12-20T03:22:56;12.20;91.60
12622;DHT22;6376;48.182;-1.644;2023-12-20T03:25:22;12.20;91.60
12622;DHT22;6376;48.182;-1.644;2023-12-20T03:27:47;12.20;91.60
12622;DHT22;6376;48.182;-1.644;2023-12-20T03:30:13;12.20;91.70
12622;DHT22;6376;48.182;-1.644;2023-12-20T03:32:39;12.10;91.60
12622;DHT22;6376;48.182;-1.644;2023-12-20T03:35:05;12.10;91.70
12622;DHT22;6376;48.182;-1.644;2023-12-20T03:37:31;12.10;91.60
12622;DHT22;6376;48.182;-1.644;2023-12-20T03:39:56;12.10;91.60
12622;DHT22;6376;48.182;-1.644;2023-12-20T03:42:22;12.10;91.60
12622;DHT22;6376;48.182;-1.644;2023-12-20T03:44:47;12.10;91.90
12622;DHT22;6376;48.182;-1.644;2023-12-20T03:47:13;12.10;91.60
12622;DHT22;6376;48.182;-1.644;2023-12-20T03:49:39;12.10;91.60
12622;DHT22;6376;48.182;-1.644;2023-12-20T03:52:05;12.10;91.60
12622;DHT22;6376;48.182;-1.644;2023-12-20T03:54:30;12.10;91.60
12622;DHT22;6376;48.182;-1.644;2023-12-20T03:56:56;12.10;91.70
12622;DHT22;6376;48.182;-1.644;2023-12-20T03:59:22;12.10;91.60
12622;DHT22;6376;48.182;-1.644;2023-12-20T04:01:47;12.10;91.60
12622;DHT22;6376;48.182;-1.644;2023-12-20T04:04:13;12.00;91.60
12622;DHT22;6376;48.182;-1.644;2023-12-20T04:06:39;12.00;91.50
12622;DHT22;6376;48.182;-1.644;2023-12-20T04:09:05;12.00;91.50
12622;DHT22;6376;48.182;-1.644;2023-12-20T04:11:31;12.00;91.60
12622;DHT22;6376;48.182;-1.644;2023-12-20T04:13:56;12.00;91.50
12622;DHT22;6376;48.182;-1.644;2023-12-20T04:16:22;12.00;91.60
12622;DHT22;6376;48.182;-1.644;2023-12-20T04:18:47;12.00;91.50
12622;DHT22;6376;48.182;-1.644;2023-12-20T04:21:13;12.00;91.50
12622;DHT22;6376;48.182;-1.644;2023-12-20T04:23:39;12.00;91.50
12622;DHT22;6376;48.182;-1.644;2023-12-20T04:26:04;12.00;91.60
12622;DHT22;6376;48.182;-1.644;2023-12-20T04:28:30;12.00;91.60
12622;DHT22;6376;48.182;-1.644;2023-12-20T04:30:56;12.00;91.60
12622;DHT22;6376;48.182;-1.644;2023-12-20T04:33:22;12.00;91.60
12622;DHT22;6376;48.182;-1.644;2023-12-20T04:35:48;12.00;91.60
12622;DHT22;6376;48.182;-1.644;2023-12-20T04:38:13;12.00;91.60
12622;DHT22;6376;48.182;-1.644;2023-12-20T04:40:39;11.90;91.50
12622;DHT22;6376;48.182;-1.644;2023-12-20T04:43:07;11.90;91.50
12622;DHT22;6376;48.182;-1.644;2023-12-20T04:45:32;11.90;91.60
12622;DHT22;6376;48.182;-1.644;2023-12-20T04:47:58;11.90;91.50
12622;DHT22;6376;48.182;-1.644;2023-12-20T04:50:23;11.90;91.60
12622;DHT22;6376;48.182;-1.644;2023-12-20T04:52:49;11.90;91.60
12622;DHT22;6376;48.182;-1.644;2023-12-20T04:55:15;11.90;91.60
12622;DHT22;6376;48.182;-1.644;2023-12-20T04:57:41;11.90;91.90
12622;DHT22;6376;48.182;-1.644;2023-12-20T05:00:07;11.90;91.50
12622;DHT22;6376;48.182;-1.644;2023-12-20T05:02:34;11.90;91.50
12622;DHT22;6376;48.182;-1.644;2023-12-20T05:05:00;11.90;91.50
12622;DHT22;6376;48.182;-1.644;2023-12-20T05:07:26;11.90;91.60
12622;DHT22;6376;48.182;-1.644;2023-12-20T05:09:51;11.90;91.60
12622;DHT22;6376;48.182;-1.644;2023-12-20T05:12:17;11.90;91.50
12622;DHT22;6376;48.182;-1.644;2023-12-20T05:14:43;11.90;91.90
12622;DHT22;6376;48.182;-1.644;2023-12-20T05:17:08;11.90;91.60
12622;DHT22;6376;48.182;-1.644;2023-12-20T05:19:34;11.90;91.50
12622;DHT22;6376;48.182;-1.644;2023-12-20T05:22:01;11.90;91.60
12622;DHT22;6376;48.182;-1.644;2023-12-20T05:24:27;11.90;91.60
12622;DHT22;6376;48.182;-1.644;2023-12-20T05:26:53;11.90;91.50
12622;DHT22;6376;48.182;-1.644;2023-12-20T05:29:19;11.90;91.60
12622;DHT22;6376;48.182;-1.644;2023-12-20T05:31:45;11.90;91.50
12622;DHT22;6376;48.182;-1.644;2023-12-20T05:34:10;11.80;91.60
12622;DHT22;6376;48.182;-1.644;2023-12-20T05:36:36;11.80;91.50
12622;DHT22;6376;48.182;-1.644;2023-12-20T05:39:02;11.80;91.50
12622;DHT22;6376;48.182;-1.644;2023-12-20T05:41:31;11.80;91.60
12622;DHT22;6376;48.182;-1.644;2023-12-20T05:43:56;11.80;91.60
12622;DHT22;6376;48.182;-1.644;2023-12-20T05:46:25;11.80;91.50
12622;DHT22;6376;48.182;-1.644;2023-12-20T05:48:51;11.80;91.60
12622;DHT22;6376;48.182;-1.644;2023-12-20T05:51:17;11.80;91.50
12622;DHT22;6376;48.182;-1.644;2023-12-20T05:53:44;11.80;91.50
12622;DHT22;6376;48.182;-1.644;2023-12-20T05:56:10;11.80;91.50
12622;DHT22;6376;48.182;-1.644;2023-12-20T05:58:36;11.80;91.60
12622;DHT22;6376;48.182;-1.644;2023-12-20T06:01:05;11.80;91.60
12622;DHT22;6376;48.182;-1.644;2023-12-20T06:03:31;11.80;91.50
12622;DHT22;6376;48.182;-1.644;2023-12-20T06:05:56;11.80;91.50
12622;DHT22;6376;48.182;-1.644;2023-12-20T06:08:22;11.80;91.50
12622;DHT22;6376;48.182;-1.644;2023-12-20T06:10:48;11.80;91.50
12622;DHT22;6376;48.182;-1.644;2023-12-20T06:13:14;11.80;91.50
12622;DHT22;6376;48.182;-1.644;2023-12-20T06:15:39;11.80;91.50
12622;DHT22;6376;48.182;-1.644;2023-12-20T06:18:06;12.60;91.70
12622;DHT22;6376;48.182;-1.644;2023-12-20T06:20:32;11.80;91.50
12622;DHT22;6376;48.182;-1.644;2023-12-20T06:22:57;11.80;91.40
12622;DHT22;6376;48.182;-1.644;2023-12-20T06:25:23;11.80;91.50
12622;DHT22;6376;48.182;-1.644;2023-12-20T06:27:49;11.80;91.50
12622;DHT22;6376;48.182;-1.644;2023-12-20T06:30:15;11.80;91.50
12622;DHT22;6376;48.182;-1.644;2023-12-20T06:32:41;11.80;91.50
12622;DHT22;6376;48.182;-1.644;2023-12-20T06:35:10;11.60;91.40
12622;DHT22;6376;48.182;-1.644;2023-12-20T06:37:36;11.80;91.50
12622;DHT22;6376;48.182;-1.644;2023-12-20T06:40:02;11.80;91.40
12622;DHT22;6376;48.182;-1.644;2023-12-20T06:42:27;11.80;91.40
12622;DHT22;6376;48.182;-1.644;2023-12-20T06:44:53;11.80;91.40
12622;DHT22;6376;48.182;-1.644;2023-12-20T06:47:18;11.80;91.40
12622;DHT22;6376;48.182;-1.644;2023-12-20T06:49:44;11.80;91.50
12622;DHT22;6376;48.182;-1.644;2023-12-20T06:52:10;11.80;91.50
12622;DHT22;6376;48.182;-1.644;2023-12-20T06:54:36;11.70;91.50
12622;DHT22;6376;48.182;-1.644;2023-12-20T06:57:01;11.70;91.50
12622;DHT22;6376;48.182;-1.644;2023-12-20T06:59:29;11.70;91.40
12622;DHT22;6376;48.182;-1.644;2023-12-20T07:01:55;11.70;91.40
12622;DHT22;6376;48.182;-1.644;2023-12-20T07:04:20;11.70;91.40
12622;DHT22;6376;48.182;-1.644;2023-12-20T07:06:48;11.70;91.40
12622;DHT22;6376;48.182;-1.644;2023-12-20T07:09:14;11.70;91.40
12622;DHT22;6376;48.182;-1.644;2023-12-20T07:11:40;11.70;91.40
12622;DHT22;6376;48.182;-1.644;2023-12-20T07:14:06;11.70;91.50
12622;DHT22;6376;48.182;-1.644;2023-12-20T07:16:31;11.70;91.50
12622;DHT22;6376;48.182;-1.644;2023-12-20T07:18:57;11.70;91.50
12622;DHT22;6376;48.182;-1.644;2023-12-20T07:21:23;11.70;91.50
12622;DHT22;6376;48.182;-1.644;2023-12-20T07:23:49;11.70;91.40
12622;DHT22;6376;48.182;-1.644;2023-12-20T07:26:15;11.60;91.70
12622;DHT22;6376;48.182;-1.644;2023-12-20T07:28:41;11.70;91.80
12622;DHT22;6376;48.182;-1.644;2023-12-20T07:31:06;11.70;91.40
12622;DHT22;6376;48.182;-1.644;2023-12-20T07:33:32;11.70;91.50
12622;DHT22;6376;48.182;-1.644;2023-12-20T07:35:59;11.70;91.50
12622;DHT22;6376;48.182;-1.644;2023-12-20T07:38:25;11.70;91.50
12622;DHT22;6376;48.182;-1.644;2023-12-20T07:40:50;11.70;91.50
12622;DHT22;6376;48.182;-1.644;2023-12-20T07:43:16;11.60;91.40
12622;DHT22;6376;48.182;-1.644;2023-12-20T07:45:42;11.60;91.40
12622;DHT22;6376;48.182;-1.644;2023-12-20T07:48:07;11.60;91.40
12622;DHT22;6376;48.182;-1.644;2023-12-20T07:50:34;11.60;91.40
12622;DHT22;6376;48.182;-1.644;2023-12-20T07:52:59;11.60;91.40
12622;DHT22;6376;48.182;-1.644;2023-12-20T07:55:26;11.60;91.40
12622;DHT22;6376;48.182;-1.644;2023-12-20T07:57:52;11.60;91.40
12622;DHT22;6376;48.182;-1.644;2023-12-20T08:00:18;11.60;91.40
12622;DHT22;6376;48.182;-1.644;2023-12-20T08:02:44;11.60;91.40
12622;DHT22;6376;48.182;-1.644;2023-12-20T08:05:10;11.60;91.30
12622;DHT22;6376;48.182;-1.644;2023-12-20T08:07:36;11.60;91.30
12622;DHT22;6376;48.182;-1.644;2023-12-20T08:10:01;11.60;91.30
12622;DHT22;6376;48.182;-1.644;2023-12-20T08:12:27;11.60;91.40
12622;DHT22;6376;48.182;-1.644;2023-12-20T08:14:54;11.60;91.40
12622;DHT22;6376;48.182;-1.644;2023-12-20T08:17:19;11.70;91.40
12622;DHT22;6376;48.182;-1.644;2023-12-20T08:19:45;11.60;91.30
12622;DHT22;6376;48.182;-1.644;2023-12-20T08:22:11;11.60;91.30
12622;DHT22;6376;48.182;-1.644;2023-12-20T08:24:37;11.70;91.30
12622;DHT22;6376;48.182;-1.644;2023-12-20T08:27:04;11.70;91.30
12622;DHT22;6376;48.182;-1.644;2023-12-20T08:29:30;11.70;91.30
12622;DHT22;6376;48.182;-1.644;2023-12-20T08:31:56;11.70;91.30
12622;DHT22;6376;48.182;-1.644;2023-12-20T08:34:22;11.70;91.30
12622;DHT22;6376;48.182;-1.644;2023-12-20T08:36:50;11.60;91.20
12622;DHT22;6376;48.182;-1.644;2023-12-20T08:39:16;11.70;91.20
12622;DHT22;6376;48.182;-1.644;2023-12-20T08:41:42;11.70;91.20
12622;DHT22;6376;48.182;-1.644;2023-12-20T08:44:08;11.70;91.20
12622;DHT22;6376;48.182;-1.644;2023-12-20T08:46:33;11.70;91.20
12622;DHT22;6376;48.182;-1.644;2023-12-20T08:48:59;11.70;91.20
12622;DHT22;6376;48.182;-1.644;2023-12-20T08:51:25;11.70;91.20
12622;DHT22;6376;48.182;-1.644;2023-12-20T08:53:51;11.70;91.20
12622;DHT22;6376;48.182;-1.644;2023-12-20T08:56:17;11.70;91.10
12622;DHT22;6376;48.182;-1.644;2023-12-20T08:58:44;11.80;91.10
12622;DHT22;6376;48.182;-1.644;2023-12-20T09:01:10;11.80;91.00
12622;DHT22;6376;48.182;-1.644;2023-12-20T09:03:35;11.80;90.90
12622;DHT22;6376;48.182;-1.644;2023-12-20T09:06:01;11.80;90.80
12622;DHT22;6376;48.182;-1.644;2023-12-20T09:08:27;11.90;90.80
12622;DHT22;6376;48.182;-1.644;2023-12-20T09:10:52;11.90;90.80
12622;DHT22;6376;48.182;-1.644;2023-12-20T09:13:18;11.80;90.80
12622;DHT22;6376;48.182;-1.644;2023-12-20T09:15:44;11.80;90.80
12622;DHT22;6376;48.182;-1.644;2023-12-20T09:18:09;11.80;90.90
12622;DHT22;6376;48.182;-1.644;2023-12-20T09:20:35;11.80;91.00
12622;DHT22;6376;48.182;-1.644;2023-12-20T09:23:01;11.80;90.90
12622;DHT22;6376;48.182;-1.644;2023-12-20T09:25:29;11.80;90.90
12622;DHT22;6376;48.182;-1.644;2023-12-20T09:27:55;11.80;91.00
12622;DHT22;6376;48.182;-1.644;2023-12-20T09:30:21;11.90;91.00
12622;DHT22;6376;48.182;-1.644;2023-12-20T09:32:47;12.00;90.70
12622;DHT22;6376;48.182;-1.644;2023-12-20T09:35:12;12.10;90.40
12622;DHT22;6376;48.182;-1.644;2023-12-20T09:37:38;12.20;90.20
12622;DHT22;6376;48.182;-1.644;2023-12-20T09:40:07;12.30;90.00
12622;DHT22;6376;48.182;-1.644;2023-12-20T09:43:04;12.40;89.70
12622;DHT22;6376;48.182;-1.644;2023-12-20T09:45:31;12.60;89.20
12622;DHT22;6376;48.182;-1.644;2023-12-20T09:47:57;12.60;88.80
12622;DHT22;6376;48.182;-1.644;2023-12-20T09:50:23;12.60;88.90
12622;DHT22;6376;48.182;-1.644;2023-12-20T09:52:53;12.70;89.10
12622;DHT22;6376;48.182;-1.644;2023-12-20T09:55:21;12.70;88.90
12622;DHT22;6376;48.182;-1.644;2023-12-20T09:57:47;12.50;89.30
12622;DHT22;6376;48.182;-1.644;2023-12-20T10:00:14;12.40;89.50
12622;DHT22;6376;48.182;-1.644;2023-12-20T10:02:50;12.40;89.70
12622;DHT22;6376;48.182;-1.644;2023-12-20T10:05:29;12.40;89.90
12622;DHT22;6376;48.182;-1.644;2023-12-20T10:07:55;12.40;89.70
12622;DHT22;6376;48.182;-1.644;2023-12-20T10:10:22;12.40;89.70
12622;DHT22;6376;48.182;-1.644;2023-12-20T10:13:09;12.50;89.30
12622;DHT22;6376;48.182;-1.644;2023-12-20T10:15:36;12.60;88.60
12622;DHT22;6376;48.182;-1.644;2023-12-20T10:18:02;12.80;88.40
12622;DHT22;6376;48.182;-1.644;2023-12-20T10:20:29;12.80;88.10
12622;DHT22;6376;48.182;-1.644;2023-12-20T10:22:56;12.90;87.70
12622;DHT22;6376;48.182;-1.644;2023-12-20T10:25:23;12.90;87.90
12622;DHT22;6376;48.182;-1.644;2023-12-20T10:27:50;12.90;87.50
12622;DHT22;6376;48.182;-1.644;2023-12-20T10:30:15;13.00;87.00
12622;DHT22;6376;48.182;-1.644;2023-12-20T10:32:41;13.10;86.70
12622;DHT22;6376;48.182;-1.644;2023-12-20T10:35:08;13.20;86.50
12622;DHT22;6376;48.182;-1.644;2023-12-20T10:37:37;13.20;86.20
12622;DHT22;6376;48.182;-1.644;2023-12-20T10:40:04;13.20;85.90
12622;DHT22;6376;48.182;-1.644;2023-12-20T10:42:31;13.40;85.60
12622;DHT22;6376;48.182;-1.644;2023-12-20T10:44:59;13.30;85.80
12622;DHT22;6376;48.182;-1.644;2023-12-20T10:47:25;13.40;85.30
12622;DHT22;6376;48.182;-1.644;2023-12-20T10:49:52;13.50;85.10
12622;DHT22;6376;48.182;-1.644;2023-12-20T10:52:19;13.60;84.70
12622;DHT22;6376;48.182;-1.644;2023-12-20T10:54:48;13.50;84.40
12622;DHT22;6376;48.182;-1.644;2023-12-20T10:57:14;13.60;84.30
12622;DHT22;6376;48.182;-1.644;2023-12-20T10:59:43;13.70;84.00
12622;DHT22;6376;48.182;-1.644;2023-12-20T11:02:11;13.70;83.70
12622;DHT22;6376;48.182;-1.644;2023-12-20T11:08:10;13.70;83.80
12622;DHT22;6376;48.182;-1.644;2023-12-20T11:13:08;13.60;84.20
12622;DHT22;6376;48.182;-1.644;2023-12-20T11:15:36;13.60;84.30
12622;DHT22;6376;48.182;-1.644;2023-12-20T11:18:04;13.60;84.40
12622;DHT22;6376;48.182;-1.644;2023-12-20T11:20:41;13.60;84.40
12622;DHT22;6376;48.182;-1.644;2023-12-20T11:23:09;13.60;84.50
12622;DHT22;6376;48.182;-1.644;2023-12-20T11:25:54;13.50;84.80
12622;DHT22;6376;48.182;-1.644;2023-12-20T11:28:22;13.40;85.50
12622;DHT22;6376;48.182;-1.644;2023-12-20T11:30:53;13.40;85.50
12622;DHT22;6376;48.182;-1.644;2023-12-20T11:33:23;13.40;85.90
12622;DHT22;6376;48.182;-1.644;2023-12-20T11:35:50;13.30;86.20
12622;DHT22;6376;48.182;-1.644;2023-12-20T11:38:16;13.20;86.30
12622;DHT22;6376;48.182;-1.644;2023-12-20T11:40:42;13.20;86.50
12622;DHT22;6376;48.182;-1.644;2023-12-20T11:43:09;13.20;86.60
12622;DHT22;6376;48.182;-1.644;2023-12-20T11:45:34;13.10;86.00
12622;DHT22;6376;48.182;-1.644;2023-12-20T11:48:02;13.10;85.50
12622;DHT22;6376;48.182;-1.644;2023-12-20T11:50:28;13.00;86.50
12622;DHT22;6376;48.182;-1.644;2023-12-20T11:52:55;13.00;86.60
12622;DHT22;6376;48.182;-1.644;2023-12-20T11:55:24;13.00;86.60
12622;DHT22;6376;48.182;-1.644;2023-12-20T11:57:51;13.00;87.20
12622;DHT22;6376;48.182;-1.644;2023-12-20T12:00:17;12.90;87.40
12622;DHT22;6376;48.182;-1.644;2023-12-20T12:02:43;12.90;87.60
12622;DHT22;6376;48.182;-1.644;2023-12-20T12:05:20;12.90;86.80
12622;DHT22;6376;48.182;-1.644;2023-12-20T12:07:45;13.00;87.20
12622;DHT22;6376;48.182;-1.644;2023-12-20T12:10:11;13.00;87.40
12622;DHT22;6376;48.182;-1.644;2023-12-20T12:12:36;13.00;87.20
12622;DHT22;6376;48.182;-1.644;2023-12-20T12:15:02;13.00;87.30
12622;DHT22;6376;48.182;-1.644;2023-12-20T12:17:28;12.90;87.60
12622;DHT22;6376;48.182;-1.644;2023-12-20T12:20:05;12.90;87.60
12622;DHT22;6376;48.182;-1.644;2023-12-20T12:22:31;12.90;87.80
12622;DHT22;6376;48.182;-1.644;2023-12-20T12:24:59;12.90;87.70
12622;DHT22;6376;48.182;-1.644;2023-12-20T12:27:34;13.00;88.00
12622;DHT22;6376;48.182;-1.644;2023-12-20T12:30:01;12.90;87.90
12622;DHT22;6376;48.182;-1.644;2023-12-20T12:32:28;12.90;88.00
12622;DHT22;6376;48.182;-1.644;2023-12-20T12:34:54;12.90;88.00
12622;DHT22;6376;48.182;-1.644;2023-12-20T12:37:19;12.90;87.90
12622;DHT22;6376;48.182;-1.644;2023-12-20T12:39:46;12.80;88.10
12622;DHT22;6376;48.182;-1.644;2023-12-20T12:42:12;12.80;88.50
12622;DHT22;6376;48.182;-1.644;2023-12-20T12:44:37;12.80;88.60
12622;DHT22;6376;48.182;-1.644;2023-12-20T12:47:03;12.80;88.80
12622;DHT22;6376;48.182;-1.644;2023-12-20T12:49:29;12.80;88.90
12622;DHT22;6376;48.182;-1.644;2023-12-20T12:51:54;12.80;88.80
12622;DHT22;6376;48.182;-1.644;2023-12-20T12:54:23;12.80;89.00
12622;DHT22;6376;48.182;-1.644;2023-12-20T12:56:49;12.80;89.10
12622;DHT22;6376;48.182;-1.644;2023-12-20T12:59:16;12.80;89.20
12622;DHT22;6376;48.182;-1.644;2023-12-20T13:01:41;12.80;89.20
12622;DHT22;6376;48.182;-1.644;2023-12-20T13:04:08;12.80;89.20
12622;DHT22;6376;48.182;-1.644;2023-12-20T13:06:39;12.80;89.30
12622;DHT22;6376;48.182;-1.644;2023-12-20T13:09:06;12.70;89.30
12622;DHT22;6376;48.182;-1.644;2023-12-20T13:11:33;12.70;89.40
12622;DHT22;6376;48.182;-1.644;2023-12-20T13:13:58;12.70;89.40
12622;DHT22;6376;48.182;-1.644;2023-12-20T13:16:24;12.70;89.60
12622;DHT22;6376;48.182;-1.644;2023-12-20T13:18:50;12.70;89.50
12622;DHT22;6376;48.182;-1.644;2023-12-20T13:21:16;12.70;89.70
12622;DHT22;6376;48.182;-1.644;2023-12-20T13:23:42;12.70;89.70
12622;DHT22;6376;48.182;-1.644;2023-12-20T13:26:08;12.70;89.60
12622;DHT22;6376;48.182;-1.644;2023-12-20T13:28:33;12.70;89.70
12622;DHT22;6376;48.182;-1.644;2023-12-20T13:30:59;12.70;89.60
12622;DHT22;6376;48.182;-1.644;2023-12-20T13:33:25;12.70;89.70
12622;DHT22;6376;48.182;-1.644;2023-12-20T13:35:51;12.70;89.70
12622;DHT22;6376;48.182;-1.644;2023-12-20T13:38:16;12.70;89.80
12622;DHT22;6376;48.182;-1.644;2023-12-20T13:40:42;12.70;89.80
12622;DHT22;6376;48.182;-1.644;2023-12-20T13:43:08;12.70;89.80
12622;DHT22;6376;48.182;-1.644;2023-12-20T13:45:35;12.70;89.80
12622;DHT22;6376;48.182;-1.644;2023-12-20T13:48:01;12.70;89.80
12622;DHT22;6376;48.182;-1.644;2023-12-20T13:50:27;12.70;89.80
12622;DHT22;6376;48.182;-1.644;2023-12-20T13:52:52;12.70;89.80
12622;DHT22;6376;48.182;-1.644;2023-12-20T13:55:18;12.70;89.80
12622;DHT22;6376;48.182;-1.644;2023-12-20T13:57:47;12.70;89.80
12622;DHT22;6376;48.182;-1.644;2023-12-20T14:00:14;12.70;90.00
12622;DHT22;6376;48.182;-1.644;2023-12-20T14:02:41;12.70;90.00
12622;DHT22;6376;48.182;-1.644;2023-12-20T14:05:07;12.70;90.00
12622;DHT22;6376;48.182;-1.644;2023-12-20T14:07:33;12.70;90.00
12622;DHT22;6376;48.182;-1.644;2023-12-20T14:09:58;12.70;90.00
12622;DHT22;6376;48.182;-1.644;2023-12-20T14:12:25;12.70;90.00
12622;DHT22;6376;48.182;-1.644;2023-12-20T14:14:50;12.70;90.10
12622;DHT22;6376;48.182;-1.644;2023-12-20T14:17:17;12.60;90.10
12622;DHT22;6376;48.182;-1.644;2023-12-20T14:19:43;12.70;90.10
12622;DHT22;6376;48.182;-1.644;2023-12-20T14:22:09;12.60;90.10
12622;DHT22;6376;48.182;-1.644;2023-12-20T14:24:35;12.60;90.20
12622;DHT22;6376;48.182;-1.644;2023-12-20T14:27:01;12.60;90.20
12622;DHT22;6376;48.182;-1.644;2023-12-20T14:29:27;12.60;90.20
12622;DHT22;6376;48.182;-1.644;2023-12-20T14:31:53;12.60;90.20
12622;DHT22;6376;48.182;-1.644;2023-12-20T14:34:18;12.60;90.20
12622;DHT22;6376;48.182;-1.644;2023-12-20T14:36:44;12.60;90.20
12622;DHT22;6376;48.182;-1.644;2023-12-20T14:39:09;12.60;90.20
12622;DHT22;6376;48.182;-1.644;2023-12-20T14:41:38;12.60;90.30
12622;DHT22;6376;48.182;-1.644;2023-12-20T14:44:05;12.60;90.30
12622;DHT22;6376;48.182;-1.644;2023-12-20T14:46:32;12.60;90.30
12622;DHT22;6376;48.182;-1.644;2023-12-20T14:48:57;12.60;90.70
12622;DHT22;6376;48.182;-1.644;2023-12-20T14:51:23;12.60;90.30
12622;DHT22;6376;48.182;-1.644;2023-12-20T14:53:50;12.60;90.30
12622;DHT22;6376;48.182;-1.644;2023-12-20T14:56:15;12.60;90.40
12622;DHT22;6376;48.182;-1.644;2023-12-20T14:58:41;12.60;90.40
12622;DHT22;6376;48.182;-1.644;2023-12-20T15:01:07;12.60;90.40
12622;DHT22;6376;48.182;-1.644;2023-12-20T15:03:34;12.50;90.40
12622;DHT22;6376;48.182;-1.644;2023-12-20T15:06:00;12.60;90.40
12622;DHT22;6376;48.182;-1.644;2023-12-20T15:08:26;12.50;90.40
12622;DHT22;6376;48.182;-1.644;2023-12-20T15:10:52;12.50;90.40
12622;DHT22;6376;48.182;-1.644;2023-12-20T15:13:17;12.50;90.40
12622;DHT22;6376;48.182;-1.644;2023-12-20T15:15:43;12.50;90.40
12622;DHT22;6376;48.182;-1.644;2023-12-20T15:18:09;12.50;90.40
12622;DHT22;6376;48.182;-1.644;2023-12-20T15:20:35;12.50;90.40
12622;DHT22;6376;48.182;-1.644;2023-12-20T15:23:02;12.50;90.40
12622;DHT22;6376;48.182;-1.644;2023-12-20T15:25:33;12.50;90.50
12622;DHT22;6376;48.182;-1.644;2023-12-20T15:27:58;12.50;90.40
12622;DHT22;6376;48.182;-1.644;2023-12-20T15:30:24;12.50;90.50